createdAt,value
2023-04-12T00:01:11.206Z,5.28
2023-04-12T00:03:54.923Z,5.40
2023-04-12T00:06:38.622Z,5.32
2023-04-12T00:09:22.204Z,5.24
2023-04-12T00:12:06.469Z,5.36
2023-04-12T00:14:50.063Z,5.01
2023-04-12T00:17:33.677Z,5.11
2023-04-12T00:20:18.415Z,5.29
2023-04-12T00:23:02.610Z,5.18
2023-04-12T00:25:46.426Z,5.10
2023-04-12T00:28:30.154Z,4.78
2023-04-12T00:31:13.938Z,5.17
2023-04-12T00:33:57.601Z,5.26
2023-04-12T00:36:43.311Z,4.85
2023-04-12T00:39:27.546Z,4.67
2023-04-12T00:42:14.162Z,4.76
2023-04-12T00:44:57.643Z,5.04
2023-04-12T00:47:45.349Z,4.96
2023-04-12T00:50:29.051Z,4.98
2023-04-12T00:53:18.413Z,4.90
2023-04-12T00:56:03.910Z,4.56
2023-04-12T00:58:47.537Z,4.51
2023-04-12T01:01:32.135Z,4.57
2023-04-12T01:04:16.368Z,4.72
2023-04-12T01:07:22.438Z,4.68
2023-04-12T01:10:30.363Z,4.68
2023-04-12T01:13:26.805Z,4.78
2023-04-12T01:16:41.106Z,4.81
2023-04-12T01:20:22.377Z,4.53
2023-04-12T01:23:19.119Z,4.38
2023-04-12T01:26:28.312Z,4.32
2023-04-12T01:29:19.387Z,4.47
2023-04-12T01:32:05.850Z,4.36
2023-04-12T01:34:52.026Z,4.41
2023-04-12T01:37:37.352Z,4.36
2023-04-12T01:40:21.805Z,4.13
2023-04-12T01:43:13.675Z,4.09
2023-04-12T01:45:57.304Z,3.95
2023-04-12T01:48:54.794Z,4.19
2023-04-12T01:51:47.415Z,4.28
2023-04-12T01:54:41.584Z,4.22
2023-04-12T01:57:27.621Z,4.05
2023-04-12T02:00:12.742Z,3.94
2023-04-12T02:02:59.932Z,4.16
2023-04-12T02:05:44.737Z,3.95
2023-04-12T02:08:28.377Z,3.63
2023-04-12T02:11:12.245Z,3.99
2023-04-12T02:13:56.103Z,3.94
2023-04-12T02:16:42.361Z,3.91
2023-04-12T02:19:26.070Z,3.69
2023-04-12T02:22:10.522Z,3.52
2023-04-12T02:24:54.270Z,3.60
2023-04-12T02:27:37.893Z,3.84
2023-04-12T02:30:21.835Z,3.71
2023-04-12T02:33:09.708Z,3.59
2023-04-12T02:35:54.616Z,3.56
2023-04-12T02:38:38.249Z,3.68
2023-04-12T02:41:24.950Z,3.62
2023-04-12T02:44:08.473Z,3.75
2023-04-12T02:46:53.583Z,3.48
2023-04-12T02:49:37.087Z,3.46
2023-04-12T02:52:21.533Z,3.46
2023-04-12T02:55:20.352Z,3.33
2023-04-12T02:58:03.966Z,3.14
2023-04-12T03:00:50.143Z,3.43
2023-04-12T03:03:39.154Z,3.28
2023-04-12T03:06:52.433Z,3.02
2023-04-12T03:09:42.704Z,3.24
2023-04-12T03:12:26.740Z,3.02
2023-04-12T03:15:29.443Z,3.00
2023-04-12T03:18:13.074Z,3.09
2023-04-12T03:21:05.925Z,2.94
2023-04-12T03:23:49.456Z,2.93
2023-04-12T03:26:35.816Z,3.11
2023-04-12T03:29:29.291Z,3.10
2023-04-12T03:32:12.808Z,2.92
2023-04-12T03:34:58.099Z,2.81
2023-04-12T03:37:43.897Z,2.92
2023-04-12T03:40:28.724Z,2.95
2023-04-12T03:43:14.895Z,2.84
2023-04-12T03:45:58.494Z,2.71
2023-04-12T03:48:43.402Z,2.76
2023-04-12T03:51:27.176Z,2.66
2023-04-12T03:54:17.186Z,2.77
2023-04-12T03:57:14.030Z,2.69
2023-04-12T04:00:01.080Z,2.72
2023-04-12T04:03:03.852Z,2.79
2023-04-12T04:05:53.476Z,2.46
2023-04-12T04:08:38.216Z,2.52
2023-04-12T04:11:21.879Z,2.55
2023-04-12T04:14:10.214Z,2.74
2023-04-12T04:16:54.245Z,2.48
2023-04-12T04:19:39.789Z,2.64
2023-04-12T04:22:23.539Z,2.48
2023-04-12T04:25:09.658Z,2.40
2023-04-12T04:27:58.275Z,2.53
2023-04-12T04:30:46.289Z,2.59
2023-04-12T04:33:33.889Z,2.53
2023-04-12T04:36:19.365Z,2.60
2023-04-12T04:39:09.262Z,2.62
2023-04-12T04:41:57.621Z,2.47
2023-04-12T04:45:02.851Z,2.50
2023-04-12T04:47:50.151Z,2.24
2023-04-12T04:50:33.983Z,2.45
2023-04-12T04:53:21.275Z,2.64
2023-04-12T04:56:05.879Z,2.59
2023-04-12T04:58:52.178Z,2.60
2023-04-12T05:01:38.332Z,2.67
2023-04-12T05:04:22.510Z,2.51
2023-04-12T05:07:06.150Z,2.58
2023-04-12T05:09:50.197Z,2.56
2023-04-12T05:12:36.727Z,2.60
2023-04-12T05:15:21.422Z,2.66
2023-04-12T05:18:05.719Z,2.71
2023-04-12T05:20:49.381Z,2.79
2023-04-12T05:23:41.936Z,2.79
2023-04-12T05:26:27.829Z,2.92
2023-04-12T05:29:12.304Z,2.96
2023-04-12T05:31:59.356Z,2.97
2023-04-12T05:34:44.196Z,2.93
2023-04-12T05:37:28.734Z,3.10
2023-04-12T05:40:12.762Z,3.18
2023-04-12T05:42:56.739Z,3.16
2023-04-12T05:45:42.109Z,3.08
2023-04-12T05:48:26.598Z,3.03
2023-04-12T05:51:12.706Z,3.02
2023-04-12T05:53:56.462Z,3.20
2023-04-12T05:56:41.106Z,3.24
2023-04-12T05:59:24.647Z,3.38
2023-04-12T06:02:09.594Z,3.49
2023-04-12T06:04:55.872Z,3.57
2023-04-12T06:07:42.260Z,3.63
2023-04-12T06:10:25.805Z,3.76
2023-04-12T06:13:10.653Z,3.78
2023-04-12T06:15:58.057Z,3.85
2023-04-12T06:18:41.850Z,4.12
2023-04-12T06:21:25.681Z,4.13
2023-04-12T06:24:09.314Z,4.14
2023-04-12T06:26:53.056Z,4.17
2023-04-12T06:29:37.010Z,4.33
2023-04-12T06:32:20.717Z,4.36
2023-04-12T06:35:08.234Z,4.40
2023-04-12T06:37:51.772Z,4.63
2023-04-12T06:40:35.480Z,4.64
2023-04-12T06:43:20.503Z,4.81
2023-04-12T06:46:04.261Z,4.89
2023-04-12T06:48:47.805Z,4.97
2023-04-12T06:51:31.375Z,5.10
2023-04-12T06:54:14.913Z,5.24
2023-04-12T06:56:58.714Z,5.25
2023-04-12T06:59:42.311Z,5.49
2023-04-12T07:02:25.917Z,5.62
2023-04-12T07:05:09.659Z,5.76
2023-04-12T07:07:54.054Z,5.80
2023-04-12T07:10:38.001Z,5.93
2023-04-12T07:13:22.628Z,6.04
2023-04-12T07:16:08.676Z,6.21
2023-04-12T07:18:52.225Z,6.35
2023-04-12T07:21:35.757Z,6.55
2023-04-12T07:24:19.282Z,6.63
2023-04-12T07:27:02.913Z,6.82
2023-04-12T07:29:46.734Z,7.02
2023-04-12T07:32:30.723Z,7.09
2023-04-12T07:35:14.456Z,7.12
2023-04-12T07:37:58.395Z,7.26
2023-04-12T07:40:41.898Z,7.40
2023-04-12T07:43:27.931Z,7.56
2023-04-12T07:46:11.582Z,7.73
2023-04-12T07:48:55.441Z,7.91
2023-04-12T07:51:39.446Z,8.07
2023-04-12T07:54:23.630Z,8.14
2023-04-12T07:57:09.080Z,8.39
2023-04-12T07:59:52.881Z,8.52
2023-04-12T08:02:37.001Z,8.72
2023-04-12T08:05:20.821Z,8.87
2023-04-12T08:08:04.857Z,8.90
2023-04-12T08:10:49.049Z,9.11
2023-04-12T08:13:34.208Z,9.29
2023-04-12T08:16:17.783Z,9.43
2023-04-12T08:19:01.649Z,9.61
2023-04-12T08:21:45.260Z,9.78
2023-04-12T08:24:28.815Z,9.93
2023-04-12T08:27:14.057Z,10.10
2023-04-12T08:29:58.015Z,10.20
2023-04-12T08:32:41.992Z,10.50
2023-04-12T08:35:25.679Z,10.82
2023-04-12T08:38:09.308Z,11.11
2023-04-12T08:40:52.862Z,11.22
2023-04-12T08:43:43.025Z,11.40
2023-04-12T08:46:27.217Z,11.80
2023-04-12T08:49:13.890Z,11.82
2023-04-12T08:52:03.249Z,11.92
2023-04-12T08:54:47.415Z,12.15
2023-04-12T08:57:34.553Z,12.71
2023-04-12T09:00:20.710Z,12.98
2023-04-12T09:03:05.755Z,12.93
2023-04-12T09:05:49.455Z,13.07
2023-04-12T09:08:33.195Z,13.31
2023-04-12T09:11:28.854Z,13.75
2023-04-12T09:14:26.074Z,13.73
2023-04-12T09:17:27.522Z,13.84
2023-04-12T09:20:17.405Z,13.82
2023-04-12T09:23:03.036Z,13.78
2023-04-12T09:25:53.608Z,14.02
2023-04-12T09:28:37.445Z,14.16
2023-04-12T09:31:21.172Z,14.22
2023-04-12T09:34:09.365Z,14.42
2023-04-12T09:36:54.043Z,14.41
2023-04-12T09:39:38.792Z,14.38
2023-04-12T09:42:33.401Z,14.89
2023-04-12T09:45:26.448Z,14.82
2023-04-12T09:48:21.197Z,15.15
2023-04-12T09:51:05.120Z,15.15
2023-04-12T09:53:50.965Z,15.23
2023-04-12T09:56:39.983Z,15.38
2023-04-12T09:59:28.426Z,15.63
2023-04-12T10:02:17.715Z,15.22
2023-04-12T10:05:02.638Z,15.61
2023-04-12T10:07:47.687Z,15.94
2023-04-12T10:10:31.498Z,15.75
2023-04-12T10:13:17.602Z,15.70
2023-04-12T10:16:01.564Z,16.17
2023-04-12T10:18:47.394Z,16.62
2023-04-12T10:21:31.658Z,16.33
2023-04-12T10:24:17.539Z,16.42
2023-04-12T10:27:03.394Z,16.67
2023-04-12T10:29:47.385Z,16.69
2023-04-12T10:32:33.470Z,16.76
2023-04-12T10:35:19.293Z,17.09
2023-04-12T10:38:05.925Z,16.60
2023-04-12T10:41:17.009Z,17.01
2023-04-12T10:44:29.640Z,16.97
2023-04-12T10:47:13.478Z,17.32
2023-04-12T10:50:30.285Z,17.23
2023-04-12T10:53:20.875Z,17.56
2023-04-12T10:56:32.066Z,17.33
2023-04-12T10:59:16.836Z,17.56
2023-04-12T11:02:12.247Z,17.64
2023-04-12T11:05:10.527Z,17.80
2023-04-12T11:08:29.706Z,17.67
2023-04-12T11:11:36.081Z,17.54
2023-04-12T11:14:31.058Z,17.99
2023-04-12T11:17:15.078Z,17.70
2023-04-12T11:20:01.220Z,17.41
2023-04-12T11:22:44.802Z,17.80
2023-04-12T11:25:29.429Z,17.94
2023-04-12T11:28:28.551Z,17.76
2023-04-12T11:31:15.253Z,17.87
2023-04-12T11:34:00.477Z,17.71
2023-04-12T11:36:53.788Z,18.24
2023-04-12T11:39:43.802Z,17.57
2023-04-12T11:42:29.561Z,17.93
2023-04-12T11:45:20.429Z,18.04
2023-04-12T11:48:09.619Z,17.79
2023-04-12T11:51:07.771Z,18.39
2023-04-12T11:53:57.149Z,18.28
2023-04-12T11:56:42.569Z,18.43
2023-04-12T11:59:35.686Z,18.47
2023-04-12T12:02:23.986Z,18.25
2023-04-12T12:05:09.091Z,18.72
2023-04-12T12:07:54.246Z,19.12
2023-04-12T12:10:55.545Z,18.66
2023-04-12T12:13:53.007Z,18.39
2023-04-12T12:16:36.550Z,17.87
2023-04-12T12:19:30.496Z,18.43
2023-04-12T12:22:20.491Z,18.56
2023-04-12T12:25:04.292Z,17.79
2023-04-12T12:27:51.463Z,18.15
2023-04-12T12:30:40.327Z,17.83
2023-04-12T12:33:35.123Z,18.33
2023-04-12T12:36:36.515Z,17.81
2023-04-12T12:39:22.759Z,17.77
2023-04-12T12:42:06.613Z,17.19
2023-04-12T12:44:50.186Z,17.14
2023-04-12T12:47:33.872Z,17.70
2023-04-12T12:50:19.416Z,17.31
2023-04-12T12:53:05.918Z,17.24
2023-04-12T12:55:49.541Z,17.33
2023-04-12T12:58:33.115Z,17.05
2023-04-12T13:01:16.832Z,17.20
2023-04-12T13:04:00.583Z,17.01
2023-04-12T13:06:44.297Z,16.71
2023-04-12T13:09:27.820Z,17.29
2023-04-12T13:12:11.787Z,17.31
2023-04-12T13:15:00.319Z,17.64
2023-04-12T13:17:53.247Z,17.49
2023-04-12T13:20:37.097Z,17.74
2023-04-12T13:23:20.956Z,17.26
2023-04-12T13:26:04.782Z,17.04
2023-04-12T13:28:48.281Z,17.16
2023-04-12T13:31:32.038Z,17.91
2023-04-12T13:34:16.087Z,18.49
2023-04-12T13:37:00.403Z,18.31
2023-04-12T13:39:44.887Z,17.88
2023-04-12T13:42:28.606Z,17.20
2023-04-12T13:45:12.327Z,17.02
2023-04-12T13:47:56.741Z,17.08
2023-04-12T13:50:40.336Z,16.99
2023-04-12T13:53:23.887Z,17.18
2023-04-12T13:56:07.743Z,17.26
2023-04-12T13:58:51.305Z,17.06
2023-04-12T14:01:34.901Z,17.15
2023-04-12T14:04:18.530Z,16.69
2023-04-12T14:07:02.195Z,16.75
2023-04-12T14:09:45.829Z,16.44
2023-04-12T14:12:29.794Z,16.76
2023-04-12T14:15:14.056Z,16.21
2023-04-12T14:17:57.681Z,15.98
2023-04-12T14:20:41.294Z,16.12
2023-04-12T14:23:26.268Z,15.77
2023-04-12T14:26:16.069Z,15.91
2023-04-12T14:29:00.017Z,15.98
2023-04-12T14:31:43.934Z,16.19
2023-04-12T14:34:27.483Z,16.04
2023-04-12T14:37:11.250Z,15.94
2023-04-12T14:39:54.817Z,16.26
2023-04-12T14:42:38.693Z,16.08
2023-04-12T14:45:22.283Z,15.86
2023-04-12T14:48:06.188Z,16.11
2023-04-12T14:50:49.760Z,15.63
2023-04-12T14:53:34.672Z,15.74
2023-04-12T14:56:25.507Z,15.35
2023-04-12T14:59:09.890Z,15.19
2023-04-12T15:01:53.758Z,15.21
2023-04-12T15:04:37.781Z,15.31
2023-04-12T15:07:21.494Z,15.19
2023-04-12T15:10:06.687Z,14.98
2023-04-12T15:12:50.208Z,14.68
2023-04-12T15:15:33.755Z,14.82
2023-04-12T15:18:17.388Z,14.64
2023-04-12T15:21:03.089Z,14.78
2023-04-12T15:23:50.978Z,14.50
2023-04-12T15:26:36.497Z,14.60
2023-04-12T15:29:22.835Z,14.64
2023-04-12T15:32:08.894Z,14.78
2023-04-12T15:34:53.589Z,14.33
2023-04-12T15:37:39.445Z,13.89
2023-04-12T15:40:23.143Z,14.01
2023-04-12T15:43:06.718Z,13.65
2023-04-12T15:45:53.491Z,13.48
2023-04-12T15:48:38.997Z,13.79
2023-04-12T15:51:24.069Z,13.44
2023-04-12T15:54:07.778Z,13.43
2023-04-12T15:56:51.318Z,13.21
2023-04-12T15:59:35.378Z,13.33
2023-04-12T16:02:19.058Z,13.55
2023-04-12T16:05:02.703Z,13.10
2023-04-12T16:07:46.805Z,13.09
2023-04-12T16:10:30.566Z,13.34
2023-04-12T16:13:14.755Z,13.02
2023-04-12T16:15:58.343Z,13.33
2023-04-12T16:18:42.472Z,13.46
2023-04-12T16:21:26.976Z,13.18
2023-04-12T16:24:11.608Z,13.51
2023-04-12T16:26:55.253Z,13.60
2023-04-12T16:29:40.425Z,13.66
2023-04-12T16:32:24.122Z,13.65
2023-04-12T16:35:08.741Z,13.32
2023-04-12T16:37:52.574Z,13.20
2023-04-12T16:40:36.106Z,13.07
2023-04-12T16:43:19.643Z,13.22
2023-04-12T16:46:07.380Z,12.74
2023-04-12T16:48:51.052Z,13.31
2023-04-12T16:51:36.766Z,13.22
2023-04-12T16:54:21.975Z,13.22
2023-04-12T16:57:06.009Z,13.18
2023-04-12T16:59:50.554Z,13.02
2023-04-12T17:02:34.977Z,13.22
2023-04-12T17:05:21.303Z,12.76
2023-04-12T17:08:05.874Z,13.01
2023-04-12T17:10:49.490Z,12.87
2023-04-12T17:13:33.023Z,12.84
2023-04-12T17:16:16.647Z,12.96
2023-04-12T17:19:00.445Z,12.90
2023-04-12T17:21:44.839Z,12.71
2023-04-12T17:24:29.346Z,12.88
2023-04-12T17:27:12.950Z,13.13
2023-04-12T17:29:56.434Z,13.07
2023-04-12T17:32:40.724Z,13.16
2023-04-12T17:35:24.545Z,13.16
2023-04-12T17:38:08.376Z,13.01
2023-04-12T17:40:52.513Z,12.95
2023-04-12T17:43:36.325Z,12.74
2023-04-12T17:46:20.153Z,12.70
2023-04-12T17:49:05.913Z,12.74
2023-04-12T17:51:49.632Z,12.96
2023-04-12T17:54:37.148Z,12.69
2023-04-12T17:57:21.231Z,12.57
2023-04-12T18:00:09.619Z,12.68
2023-04-12T18:02:56.208Z,12.43
2023-04-12T18:05:40.997Z,12.47
2023-04-12T18:08:25.031Z,12.52
2023-04-12T18:11:09.113Z,12.53
2023-04-12T18:13:52.629Z,12.30
2023-04-12T18:16:37.546Z,12.37
2023-04-12T18:19:21.288Z,12.27
2023-04-12T18:22:04.803Z,12.47
2023-04-12T18:24:48.401Z,12.18
2023-04-12T18:27:32.285Z,12.59
2023-04-12T18:30:17.449Z,12.61
2023-04-12T18:33:03.944Z,12.13
2023-04-12T18:35:47.510Z,12.05
2023-04-12T18:38:35.666Z,12.02
2023-04-12T18:41:19.175Z,12.05
2023-04-12T18:44:03.668Z,11.86
2023-04-12T18:46:47.358Z,11.74
2023-04-12T18:49:31.468Z,11.92
2023-04-12T18:52:19.286Z,11.69
2023-04-12T18:55:08.323Z,11.90
2023-04-12T18:57:51.863Z,11.97
2023-04-12T19:00:35.618Z,11.79
2023-04-12T19:03:19.258Z,11.61
2023-04-12T19:06:04.568Z,11.38
2023-04-12T19:08:49.870Z,11.43
2023-04-12T19:11:36.236Z,11.46
2023-04-12T19:14:21.253Z,11.32
2023-04-12T19:17:04.818Z,11.37
2023-04-12T19:19:48.674Z,11.37
2023-04-12T19:22:32.184Z,11.36
2023-04-12T19:25:18.225Z,11.25
2023-04-12T19:28:03.112Z,11.47
2023-04-12T19:30:46.823Z,11.31
2023-04-12T19:33:30.406Z,11.36
2023-04-12T19:36:14.278Z,11.64
2023-04-12T19:38:58.027Z,11.48
2023-04-12T19:41:41.702Z,11.50
2023-04-12T19:44:26.157Z,11.66
2023-04-12T19:47:09.724Z,11.65
2023-04-12T19:49:53.352Z,11.63
2023-04-12T19:52:36.914Z,11.74
2023-04-12T19:55:21.635Z,11.65
2023-04-12T19:58:05.178Z,11.46
2023-04-12T20:00:52.373Z,11.46
2023-04-12T20:03:35.969Z,11.10
2023-04-12T20:06:19.722Z,11.51
2023-04-12T20:09:03.420Z,11.50
2023-04-12T20:11:47.081Z,11.19
2023-04-12T20:14:32.466Z,10.97
2023-04-12T20:17:16.393Z,10.97
2023-04-12T20:19:59.959Z,11.08
2023-04-12T20:22:51.971Z,11.02
2023-04-12T20:25:37.848Z,11.54
2023-04-12T20:28:21.459Z,11.22
2023-04-12T20:31:06.281Z,11.09
2023-04-12T20:33:50.112Z,11.25
2023-04-12T20:36:33.712Z,11.29
2023-04-12T20:39:17.915Z,10.92
2023-04-12T20:42:01.552Z,11.14
2023-04-12T20:44:45.788Z,10.98
2023-04-12T20:47:29.370Z,11.20
2023-04-12T20:50:13.017Z,10.82
2023-04-12T20:52:56.538Z,10.96
2023-04-12T20:55:40.365Z,10.51
2023-04-12T20:58:26.760Z,10.55
2023-04-12T21:01:15.168Z,10.72
2023-04-12T21:04:06.004Z,10.61
2023-04-12T21:06:50.870Z,10.98
2023-04-12T21:09:34.415Z,10.89
2023-04-12T21:12:18.358Z,10.78
2023-04-12T21:15:03.484Z,10.81
2023-04-12T21:17:47.230Z,10.82
2023-04-12T21:20:30.809Z,10.75
2023-04-12T21:23:18.456Z,10.53
2023-04-12T21:26:02.691Z,10.47
2023-04-12T21:28:46.256Z,10.37
2023-04-12T21:31:30.738Z,10.53
2023-04-12T21:34:14.823Z,10.48
2023-04-12T21:37:02.823Z,10.59
2023-04-12T21:39:47.604Z,10.19
2023-04-12T21:42:31.269Z,10.58
2023-04-12T21:45:15.133Z,10.65
2023-04-12T21:47:58.655Z,10.57
2023-04-12T21:50:42.272Z,10.63
2023-04-12T21:53:25.947Z,10.59
2023-04-12T21:56:10.116Z,10.36
2023-04-12T21:58:53.727Z,10.28
2023-04-12T22:01:38.235Z,10.47
2023-04-12T22:04:22.344Z,10.49
2023-04-12T22:07:10.152Z,10.57
2023-04-12T22:09:53.968Z,10.82
2023-04-12T22:12:38.342Z,10.92
2023-04-12T22:15:22.311Z,10.58
2023-04-12T22:18:06.430Z,10.90
2023-04-12T22:20:50.048Z,10.93
2023-04-12T22:23:37.007Z,10.97
2023-04-12T22:26:20.589Z,10.61
2023-04-12T22:29:04.972Z,10.47
2023-04-12T22:31:48.536Z,10.47
2023-04-12T22:34:32.655Z,10.46
2023-04-12T22:37:16.358Z,10.61
2023-04-12T22:40:02.388Z,10.78
2023-04-12T22:42:47.419Z,10.51
2023-04-12T22:45:31.556Z,10.61
2023-04-12T22:48:16.208Z,10.55
2023-04-12T22:51:01.302Z,10.72
2023-04-12T22:53:44.889Z,10.60
2023-04-12T22:56:29.335Z,10.77
2023-04-12T22:59:14.643Z,10.52
2023-04-12T23:01:58.252Z,10.33
2023-04-12T23:04:43.989Z,10.32
2023-04-12T23:07:30.265Z,10.46
2023-04-12T23:10:14.041Z,10.43
2023-04-12T23:12:57.600Z,10.34
2023-04-12T23:15:45.411Z,10.46
2023-04-12T23:18:29.202Z,10.36
2023-04-12T23:21:12.701Z,10.54
2023-04-12T23:23:56.758Z,10.38
2023-04-12T23:26:40.609Z,10.47
2023-04-12T23:29:25.905Z,10.40
2023-04-12T23:32:09.408Z,10.52
2023-04-12T23:34:54.902Z,10.42
2023-04-12T23:37:41.143Z,10.38
2023-04-12T23:40:28.367Z,10.53
2023-04-12T23:43:11.843Z,10.57
2023-04-12T23:45:56.729Z,10.43
2023-04-12T23:48:40.643Z,10.30
2023-04-12T23:51:24.187Z,10.64
2023-04-12T23:54:07.785Z,10.58
2023-04-12T23:56:51.281Z,10.36
2023-04-12T23:59:34.800Z,10.19
